Time;durP1;ratioP1;P1;durP2;ratioP2;P2;SDS_P1;SDS_P2;PMS_P1;PMS_P2;Temp;Humidity;BMP_temperature;BMP_pressure;BME280_temperature;BME280_humidity;BME280_pressure;Samples;Min_cycle;Max_cycle;Signal;HPM_P1;HPM_P2
2020/12/05 00:00:27;;;;;;;5.95;3.45;;;;;;;1.72;69.82422;92618.06;;;;
2020/12/05 00:01:28;;;;;;;5.95;3.45;;;;;;;1.72;69.82422;92618.06;;;;
2020/12/05 00:02:28;;;;;;;6.450001;3.75;;;;;;;1.56;70.19629;92623.29;;;;
2020/12/05 00:03:29;;;;;;;6.450001;3.75;;;;;;;1.56;70.19629;92623.29;;;;
2020/12/05 00:04:29;;;;;;;6.450001;3.75;;;;;;;1.56;70.19629;92623.29;;;;
2020/12/05 00:05:30;;;;;;;6.450001;3.75;;;;;;;1.56;70.19629;92623.29;;;;
2020/12/05 00:06:30;;;;;;;6.450001;3.75;;;;;;;1.56;70.19629;92623.29;;;;
2020/12/05 00:07:31;;;;;;;6.450001;3.75;;;;;;;1.56;70.19629;92623.29;;;;
2020/12/05 00:08:31;;;;;;;6.450001;3.75;;;;;;;1.56;70.19629;92623.29;;;;
2020/12/05 00:09:33;;;;;;;6.450001;3.75;;;;;;;1.56;70.19629;92623.29;;;;
2020/12/05 00:10:33;;;;;;;6.450001;3.75;;;;;;;1.56;70.19629;92623.29;;;;
2020/12/05 00:11:34;;;;;;;6.450001;3.75;;;;;;;1.56;70.19629;92623.29;;;;
2020/12/05 00:12:34;;;;;;;6.450001;3.75;;;;;;;1.56;70.19629;92623.29;;;;
2020/12/05 00:13:35;;;;;;;5.900001;3.75;;;;;;;1.46;70.27441;92657.32;;;;
2020/12/05 00:14:36;;;;;;;5.900001;3.75;;;;;;;1.46;70.27441;92657.32;;;;
2020/12/05 00:15:37;;;;;;;5.900001;3.75;;;;;;;1.46;70.27441;92657.32;;;;
2020/12/05 00:16:37;;;;;;;5.900001;3.75;;;;;;;1.46;70.27441;92657.32;;;;
2020/12/05 00:17:38;;;;;;;5.900001;3.75;;;;;;;1.46;70.27441;92657.32;;;;
2020/12/05 00:18:38;;;;;;;5.900001;3.75;;;;;;;1.46;70.27441;92657.32;;;;
2020/12/05 00:19:42;;;;;;;5.900001;3.75;;;;;;;1.46;70.27441;92657.32;;;;
2020/12/05 00:20:42;;;;;;;5.900001;3.75;;;;;;;1.46;70.27441;92657.32;;;;
2020/12/05 00:21:43;;;;;;;5.900001;3.75;;;;;;;1.46;70.27441;92657.32;;;;
2020/12/05 00:22:44;;;;;;;5.900001;3.75;;;;;;;1.46;70.27441;92657.32;;;;
2020/12/05 00:23:44;;;;;;;4.9;3.5;;;;;;;1.35;70.60156;92600.7;;;;
2020/12/05 00:24:45;;;;;;;4.9;3.5;;;;;;;1.35;70.60156;92600.7;;;;
2020/12/05 00:25:45;;;;;;;4.9;3.5;;;;;;;1.35;70.60156;92600.7;;;;
2020/12/05 00:26:46;;;;;;;4.9;3.5;;;;;;;1.35;70.60156;92600.7;;;;
2020/12/05 00:27:47;;;;;;;4.9;3.5;;;;;;;1.35;70.60156;92600.7;;;;
2020/12/05 00:28:48;;;;;;;4.9;3.5;;;;;;;1.35;70.60156;92600.7;;;;
2020/12/05 00:29:49;;;;;;;4.9;3.5;;;;;;;1.35;70.60156;92600.7;;;;
2020/12/05 00:30:49;;;;;;;4.9;3.5;;;;;;;1.35;70.60156;92600.7;;;;
2020/12/05 00:31:50;;;;;;;4.9;3.5;;;;;;;1.35;70.60156;92600.7;;;;
2020/12/05 00:32:51;;;;;;;4.9;3.5;;;;;;;1.35;70.60156;92600.7;;;;
2020/12/05 00:33:52;;;;;;;4.9;3.5;;;;;;;1.35;70.60156;92600.7;;;;
2020/12/05 00:34:52;;;;;;;4.25;3;;;;;;;1.25;70.70996;92604.53;;;;
2020/12/05 00:35:53;;;;;;;4.25;3;;;;;;;1.25;70.70996;92604.53;;;;
2020/12/05 00:36:53;;;;;;;4.25;3;;;;;;;1.25;70.70996;92604.53;;;;
2020/12/05 00:37:54;;;;;;;4.25;3;;;;;;;1.25;70.70996;92604.53;;;;
2020/12/05 00:38:55;;;;;;;4.25;3;;;;;;;1.25;70.70996;92604.53;;;;
2020/12/05 00:39:56;;;;;;;4.25;3;;;;;;;1.25;70.70996;92604.53;;;;
2020/12/05 00:40:56;;;;;;;4.25;3;;;;;;;1.25;70.70996;92604.53;;;;
2020/12/05 00:41:57;;;;;;;4.25;3;;;;;;;1.25;70.70996;92604.53;;;;
2020/12/05 00:42:58;;;;;;;4.25;3;;;;;;;1.25;70.70996;92604.53;;;;
2020/12/05 00:43:59;;;;;;;4.25;3;;;;;;;1.25;70.70996;92604.53;;;;
2020/12/05 00:44:59;;;;;;;5.750001;3.7;;;;;;;1.15;70.77832;92593.78;;;;
2020/12/05 00:46:00;;;;;;;5.750001;3.7;;;;;;;1.15;70.77832;92593.78;;;;
2020/12/05 00:47:03;;;;;;;5.750001;3.7;;;;;;;1.15;70.77832;92593.78;;;;
2020/12/05 00:48:03;;;;;;;5.750001;3.7;;;;;;;1.15;70.77832;92593.78;;;;
2020/12/05 00:49:04;;;;;;;5.750001;3.7;;;;;;;1.15;70.77832;92593.78;;;;
2020/12/05 00:50:04;;;;;;;5.750001;3.7;;;;;;;1.15;70.77832;92593.78;;;;
2020/12/05 00:51:05;;;;;;;5.750001;3.7;;;;;;;1.15;70.77832;92593.78;;;;
2020/12/05 00:52:05;;;;;;;5.750001;3.7;;;;;;;1.15;70.77832;92593.78;;;;
2020/12/05 00:53:06;;;;;;;5.750001;3.7;;;;;;;1.15;70.77832;92593.78;;;;
2020/12/05 00:54:06;;;;;;;5.750001;3.7;;;;;;;1.15;70.77832;92593.78;;;;
2020/12/05 00:55:07;;;;;;;5.750001;3.7;;;;;;;1.15;70.77832;92593.78;;;;
2020/12/05 00:56:07;;;;;;;5.6;3.2;;;;;;;1.04;70.875;92579.93;;;;
2020/12/05 00:57:08;;;;;;;5.6;3.2;;;;;;;1.04;70.875;92579.93;;;;
2020/12/05 00:58:08;;;;;;;5.6;3.2;;;;;;;1.04;70.875;92579.93;;;;
2020/12/05 00:59:09;;;;;;;5.6;3.2;;;;;;;1.04;70.875;92579.93;;;;
2020/12/05 01:00:11;;;;;;;5.6;3.2;;;;;;;1.04;70.875;92579.93;;;;
2020/12/05 01:01:12;;;;;;;5.6;3.2;;;;;;;1.04;70.875;92579.93;;;;
2020/12/05 01:02:13;;;;;;;5.6;3.2;;;;;;;1.04;70.875;92579.93;;;;
2020/12/05 01:03:14;;;;;;;5.6;3.2;;;;;;;1.04;70.875;92579.93;;;;
2020/12/05 01:04:14;;;;;;;5.6;3.2;;;;;;;1.04;70.875;92579.93;;;;
2020/12/05 01:05:15;;;;;;;5.6;3.2;;;;;;;1.04;70.875;92579.93;;;;
2020/12/05 01:06:16;;;;;;;5.6;3.2;;;;;;;1.04;70.875;92579.93;;;;
2020/12/05 01:07:17;;;;;;;6.65;3.400001;;;;;;;1.1;71.00977;92562.76;;;;
2020/12/05 01:08:21;;;;;;;6.65;3.400001;;;;;;;1.1;71.00977;92562.76;;;;
2020/12/05 01:09:21;;;;;;;6.65;3.400001;;;;;;;1.1;71.00977;92562.76;;;;
2020/12/05 01:10:22;;;;;;;6.65;3.400001;;;;;;;1.1;71.00977;92562.76;;;;
2020/12/05 01:11:22;;;;;;;6.65;3.400001;;;;;;;1.1;71.00977;92562.76;;;;
2020/12/05 01:12:24;;;;;;;6.65;3.400001;;;;;;;1.1;71.00977;92562.76;;;;
2020/12/05 01:13:28;;;;;;;6.65;3.400001;;;;;;;1.1;71.00977;92562.76;;;;
2020/12/05 01:14:29;;;;;;;6.65;3.400001;;;;;;;1.1;71.00977;92562.76;;;;
2020/12/05 01:15:29;;;;;;;6.65;3.400001;;;;;;;1.1;71.00977;92562.76;;;;
2020/12/05 01:16:31;;;;;;;6.65;3.400001;;;;;;;1.1;71.00977;92562.76;;;;
2020/12/05 01:17:32;;;;;;;6.950001;3.75;;;;;;;1.22;71.01953;92587.77;;;;
2020/12/05 01:18:33;;;;;;;6.950001;3.75;;;;;;;1.22;71.01953;92587.77;;;;
2020/12/05 01:19:33;;;;;;;6.950001;3.75;;;;;;;1.22;71.01953;92587.77;;;;
2020/12/05 01:20:34;;;;;;;6.950001;3.75;;;;;;;1.22;71.01953;92587.77;;;;
2020/12/05 01:21:34;;;;;;;6.950001;3.75;;;;;;;1.22;71.01953;92587.77;;;;
2020/12/05 01:22:35;;;;;;;6.950001;3.75;;;;;;;1.22;71.01953;92587.77;;;;
2020/12/05 01:23:35;;;;;;;6.950001;3.75;;;;;;;1.22;71.01953;92587.77;;;;
2020/12/05 01:24:37;;;;;;;6.950001;3.75;;;;;;;1.22;71.01953;92587.77;;;;
2020/12/05 01:25:37;;;;;;;6.950001;3.75;;;;;;;1.22;71.01953;92587.77;;;;
2020/12/05 01:26:38;;;;;;;6.950001;3.75;;;;;;;1.22;71.01953;92587.77;;;;
2020/12/05 01:27:38;;;;;;;5.900001;3.4;;;;;;;1.27;70.89258;92578.52;;;;
2020/12/05 01:28:39;;;;;;;5.900001;3.4;;;;;;;1.27;70.89258;92578.52;;;;
2020/12/05 01:29:39;;;;;;;5.900001;3.4;;;;;;;1.27;70.89258;92578.52;;;;
2020/12/05 01:30:40;;;;;;;5.900001;3.4;;;;;;;1.27;70.89258;92578.52;;;;
2020/12/05 01:31:40;;;;;;;5.900001;3.4;;;;;;;1.27;70.89258;92578.52;;;;
2020/12/05 01:32:41;;;;;;;5.900001;3.4;;;;;;;1.27;70.89258;92578.52;;;;
2020/12/05 01:33:41;;;;;;;5.900001;3.4;;;;;;;1.27;70.89258;92578.52;;;;
2020/12/05 01:34:42;;;;;;;5.900001;3.4;;;;;;;1.27;70.89258;92578.52;;;;
2020/12/05 01:35:43;;;;;;;5.900001;3.4;;;;;;;1.27;70.89258;92578.52;;;;
2020/12/05 01:36:44;;;;;;;5.900001;3.4;;;;;;;1.27;70.89258;92578.52;;;;
2020/12/05 01:37:45;;;;;;;5.900001;3.4;;;;;;;1.27;70.89258;92578.52;;;;
2020/12/05 01:38:45;;;;;;;6.45;3.95;;;;;;;1.21;70.88184;92588.28;;;;
2020/12/05 01:39:46;;;;;;;6.45;3.95;;;;;;;1.21;70.88184;92588.28;;;;
2020/12/05 01:40:46;;;;;;;6.45;3.95;;;;;;;1.21;70.88184;92588.28;;;;
2020/12/05 01:41:49;;;;;;;6.45;3.95;;;;;;;1.21;70.88184;92588.28;;;;
2020/12/05 01:42:51;;;;;;;6.45;3.95;;;;;;;1.21;70.88184;92588.28;;;;
2020/12/05 01:43:51;;;;;;;6.45;3.95;;;;;;;1.21;70.88184;92588.28;;;;
2020/12/05 01:44:52;;;;;;;6.45;3.95;;;;;;;1.21;70.88184;92588.28;;;;
2020/12/05 01:45:52;;;;;;;6.45;3.95;;;;;;;1.21;70.88184;92588.28;;;;
2020/12/05 01:46:53;;;;;;;6.45;3.95;;;;;;;1.21;70.88184;92588.28;;;;
2020/12/05 01:47:54;;;;;;;6.45;3.95;;;;;;;1.21;70.88184;92588.28;;;;
2020/12/05 01:48:54;;;;;;;6.45;3.95;;;;;;;1.21;70.88184;92588.28;;;;
2020/12/05 01:49:55;;;;;;;6.099999;3.75;;;;;;;1.06;71.04688;92628.31;;;;
2020/12/05 01:50:57;;;;;;;6.099999;3.75;;;;;;;1.06;71.04688;92628.31;;;;
2020/12/05 01:51:57;;;;;;;6.099999;3.75;;;;;;;1.06;71.04688;92628.31;;;;
2020/12/05 01:53:00;;;;;;;6.099999;3.75;;;;;;;1.06;71.04688;92628.31;;;;
2020/12/05 01:54:00;;;;;;;6.099999;3.75;;;;;;;1.06;71.04688;92628.31;;;;
2020/12/05 01:55:03;;;;;;;6.099999;3.75;;;;;;;1.06;71.04688;92628.31;;;;
2020/12/05 01:56:05;;;;;;;6.099999;3.75;;;;;;;1.06;71.04688;92628.31;;;;
2020/12/05 01:57:05;;;;;;;6.099999;3.75;;;;;;;1.06;71.04688;92628.31;;;;
2020/12/05 01:58:06;;;;;;;6.099999;3.75;;;;;;;1.06;71.04688;92628.31;;;;
2020/12/05 01:59:06;;;;;;;6.099999;3.75;;;;;;;1.06;71.04688;92628.31;;;;
2020/12/05 02:00:07;;;;;;;6.649999;3.75;;;;;;;1;71.27734;92627.98;;;;
2020/12/05 02:01:07;;;;;;;6.649999;3.75;;;;;;;1;71.27734;92627.98;;;;
2020/12/05 02:02:11;;;;;;;6.649999;3.75;;;;;;;1;71.27734;92627.98;;;;
2020/12/05 02:03:11;;;;;;;6.649999;3.75;;;;;;;1;71.27734;92627.98;;;;
2020/12/05 02:04:13;;;;;;;6.649999;3.75;;;;;;;1;71.27734;92627.98;;;;
2020/12/05 02:05:14;;;;;;;6.649999;3.75;;;;;;;1;71.27734;92627.98;;;;
2020/12/05 02:06:28;;;;;;;6.649999;3.75;;;;;;;1;71.27734;92627.98;;;;
2020/12/05 02:07:41;;;;;;;6.649999;3.75;;;;;;;1;71.27734;92627.98;;;;
2020/12/05 02:08:49;;;;;;;6.649999;3.75;;;;;;;1;71.27734;92627.98;;;;
2020/12/05 02:09:56;;;;;;;6.649999;3.75;;;;;;;1;71.27734;92627.98;;;;
2020/12/05 02:10:58;;;;;;;5.65;3.55;;;;;;;0.9;71.36621;92633.12;;;;
2020/12/05 02:12:01;;;;;;;5.65;3.55;;;;;;;0.9;71.36621;92633.12;;;;
2020/12/05 02:13:07;;;;;;;5.65;3.55;;;;;;;0.9;71.36621;92633.12;;;;
2020/12/05 02:14:12;;;;;;;5.65;3.55;;;;;;;0.9;71.36621;92633.12;;;;
2020/12/05 02:15:19;;;;;;;5.65;3.55;;;;;;;0.9;71.36621;92633.12;;;;
2020/12/05 02:16:23;;;;;;;5.65;3.55;;;;;;;0.9;71.36621;92633.12;;;;
2020/12/05 02:17:24;;;;;;;5.65;3.55;;;;;;;0.9;71.36621;92633.12;;;;
2020/12/05 02:18:25;;;;;;;5.65;3.55;;;;;;;0.9;71.36621;92633.12;;;;
2020/12/05 02:19:28;;;;;;;5.65;3.55;;;;;;;0.9;71.36621;92633.12;;;;
2020/12/05 02:20:39;;;;;;;5.65;3.55;;;;;;;0.9;71.36621;92633.12;;;;
2020/12/05 02:21:40;;;;;;;5.1;3.05;;;;;;;0.75;71.60059;92673.24;;;;
2020/12/05 02:22:43;;;;;;;5.1;3.05;;;;;;;0.75;71.60059;92673.24;;;;
2020/12/05 02:23:46;;;;;;;5.1;3.05;;;;;;;0.75;71.60059;92673.24;;;;
2020/12/05 02:24:47;;;;;;;5.1;3.05;;;;;;;0.75;71.60059;92673.24;;;;
2020/12/05 02:25:50;;;;;;;5.1;3.05;;;;;;;0.75;71.60059;92673.24;;;;
2020/12/05 02:26:54;;;;;;;5.1;3.05;;;;;;;0.75;71.60059;92673.24;;;;
2020/12/05 02:27:54;;;;;;;5.1;3.05;;;;;;;0.75;71.60059;92673.24;;;;
2020/12/05 02:28:55;;;;;;;5.1;3.05;;;;;;;0.75;71.60059;92673.24;;;;
2020/12/05 02:29:56;;;;;;;5.1;3.05;;;;;;;0.75;71.60059;92673.24;;;;
2020/12/05 02:30:56;;;;;;;5.1;3.05;;;;;;;0.75;71.60059;92673.24;;;;
2020/12/05 02:31:57;;;;;;;7.6;3.299999;;;;;;;0.6;71.66992;92650.41;;;;
2020/12/05 02:32:59;;;;;;;7.6;3.299999;;;;;;;0.6;71.66992;92650.41;;;;
2020/12/05 02:33:59;;;;;;;7.6;3.299999;;;;;;;0.6;71.66992;92650.41;;;;
2020/12/05 02:35:00;;;;;;;7.6;3.299999;;;;;;;0.6;71.66992;92650.41;;;;
2020/12/05 02:36:00;;;;;;;7.6;3.299999;;;;;;;0.6;71.66992;92650.41;;;;
2020/12/05 02:37:01;;;;;;;7.6;3.299999;;;;;;;0.6;71.66992;92650.41;;;;
2020/12/05 02:38:09;;;;;;;7.6;3.299999;;;;;;;0.6;71.66992;92650.41;;;;
2020/12/05 02:39:15;;;;;;;7.6;3.299999;;;;;;;0.6;71.66992;92650.41;;;;
2020/12/05 02:40:17;;;;;;;7.6;3.299999;;;;;;;0.6;71.66992;92650.41;;;;
2020/12/05 02:41:18;;;;;;;7.6;3.299999;;;;;;;0.6;71.66992;92650.41;;;;
2020/12/05 02:42:19;;;;;;;7.6;3.299999;;;;;;;0.6;71.66992;92650.41;;;;
2020/12/05 02:43:20;;;;;;;5.400001;3.05;;;;;;;0.41;71.86816;92693.63;;;;
2020/12/05 02:44:20;;;;;;;5.400001;3.05;;;;;;;0.41;71.86816;92693.63;;;;
2020/12/05 02:45:21;;;;;;;5.400001;3.05;;;;;;;0.41;71.86816;92693.63;;;;
2020/12/05 02:46:22;;;;;;;5.400001;3.05;;;;;;;0.41;71.86816;92693.63;;;;
2020/12/05 02:47:23;;;;;;;5.400001;3.05;;;;;;;0.41;71.86816;92693.63;;;;
2020/12/05 02:48:23;;;;;;;5.400001;3.05;;;;;;;0.41;71.86816;92693.63;;;;
2020/12/05 02:49:24;;;;;;;5.400001;3.05;;;;;;;0.41;71.86816;92693.63;;;;
2020/12/05 02:50:24;;;;;;;5.400001;3.05;;;;;;;0.41;71.86816;92693.63;;;;
2020/12/05 02:51:25;;;;;;;5.400001;3.05;;;;;;;0.41;71.86816;92693.63;;;;
2020/12/05 02:52:25;;;;;;;5.400001;3.05;;;;;;;0.41;71.86816;92693.63;;;;
2020/12/05 02:53:26;;;;;;;5.000001;3;;;;;;;0.15;72.14941;92716.74;;;;
2020/12/05 02:54:28;;;;;;;5.000001;3;;;;;;;0.15;72.14941;92716.74;;;;
2020/12/05 02:55:29;;;;;;;5.000001;3;;;;;;;0.15;72.14941;92716.74;;;;
2020/12/05 02:56:29;;;;;;;5.000001;3;;;;;;;0.15;72.14941;92716.74;;;;
2020/12/05 02:57:29;;;;;;;5.000001;3;;;;;;;0.15;72.14941;92716.74;;;;
2020/12/05 02:58:30;;;;;;;5.000001;3;;;;;;;0.15;72.14941;92716.74;;;;
2020/12/05 02:59:30;;;;;;;5.000001;3;;;;;;;0.15;72.14941;92716.74;;;;
2020/12/05 03:00:32;;;;;;;5.000001;3;;;;;;;0.15;72.14941;92716.74;;;;
2020/12/05 03:01:33;;;;;;;5.000001;3;;;;;;;0.15;72.14941;92716.74;;;;
2020/12/05 03:02:33;;;;;;;5.000001;3;;;;;;;0.15;72.14941;92716.74;;;;
2020/12/05 03:03:34;;;;;;;5.000001;3;;;;;;;0.15;72.14941;92716.74;;;;
2020/12/05 03:04:34;;;;;;;4;2.65;;;;;;;0.12;72.38281;92743.33;;;;
2020/12/05 03:05:35;;;;;;;4;2.65;;;;;;;0.12;72.38281;92743.33;;;;
2020/12/05 03:06:35;;;;;;;4;2.65;;;;;;;0.12;72.38281;92743.33;;;;
2020/12/05 03:07:36;;;;;;;4;2.65;;;;;;;0.12;72.38281;92743.33;;;;
2020/12/05 03:08:36;;;;;;;4;2.65;;;;;;;0.12;72.38281;92743.33;;;;
2020/12/05 03:09:36;;;;;;;4;2.65;;;;;;;0.12;72.38281;92743.33;;;;
2020/12/05 03:10:37;;;;;;;4;2.65;;;;;;;0.12;72.38281;92743.33;;;;
2020/12/05 03:11:37;;;;;;;4;2.65;;;;;;;0.12;72.38281;92743.33;;;;
2020/12/05 03:12:38;;;;;;;4;2.65;;;;;;;0.12;72.38281;92743.33;;;;
2020/12/05 03:13:38;;;;;;;4;2.65;;;;;;;0.12;72.38281;92743.33;;;;
2020/12/05 03:14:39;;;;;;;5.1;2.95;;;;;;;0.24;72.67578;92802.46;;;;
2020/12/05 03:15:39;;;;;;;5.1;2.95;;;;;;;0.24;72.67578;92802.46;;;;
2020/12/05 03:16:40;;;;;;;5.1;2.95;;;;;;;0.24;72.67578;92802.46;;;;
2020/12/05 03:17:40;;;;;;;5.1;2.95;;;;;;;0.24;72.67578;92802.46;;;;
2020/12/05 03:18:41;;;;;;;5.1;2.95;;;;;;;0.24;72.67578;92802.46;;;;
2020/12/05 03:19:41;;;;;;;5.1;2.95;;;;;;;0.24;72.67578;92802.46;;;;
2020/12/05 03:20:42;;;;;;;5.1;2.95;;;;;;;0.24;72.67578;92802.46;;;;
2020/12/05 03:21:42;;;;;;;5.1;2.95;;;;;;;0.24;72.67578;92802.46;;;;
2020/12/05 03:22:43;;;;;;;5.1;2.95;;;;;;;0.24;72.67578;92802.46;;;;
2020/12/05 03:23:45;;;;;;;5.1;2.95;;;;;;;0.24;72.67578;92802.46;;;;
2020/12/05 03:24:46;;;;;;;5.1;2.95;;;;;;;0.24;72.67578;92802.46;;;;
2020/12/05 03:25:46;;;;;;;8;4.8;;;;;;;0.53;73.24805;92843.94;;;;
2020/12/05 03:26:47;;;;;;;8;4.8;;;;;;;0.53;73.24805;92843.94;;;;
2020/12/05 03:27:47;;;;;;;8;4.8;;;;;;;0.53;73.24805;92843.94;;;;
2020/12/05 03:28:48;;;;;;;8;4.8;;;;;;;0.53;73.24805;92843.94;;;;
2020/12/05 03:29:51;;;;;;;8;4.8;;;;;;;0.53;73.24805;92843.94;;;;
2020/12/05 03:30:51;;;;;;;8;4.8;;;;;;;0.53;73.24805;92843.94;;;;
2020/12/05 03:31:55;;;;;;;8;4.8;;;;;;;0.53;73.24805;92843.94;;;;
2020/12/05 03:32:56;;;;;;;8;4.8;;;;;;;0.53;73.24805;92843.94;;;;
2020/12/05 03:33:58;;;;;;;8;4.8;;;;;;;0.53;73.24805;92843.94;;;;
2020/12/05 03:34:59;;;;;;;8;4.8;;;;;;;0.53;73.24805;92843.94;;;;
2020/12/05 03:35:59;;;;;;;15.1;8.450001;;;;;;;0.74;73.86035;92905.69;;;;
2020/12/05 03:37:00;;;;;;;15.1;8.450001;;;;;;;0.74;73.86035;92905.69;;;;
2020/12/05 03:38:00;;;;;;;15.1;8.450001;;;;;;;0.74;73.86035;92905.69;;;;
2020/12/05 03:39:01;;;;;;;15.1;8.450001;;;;;;;0.74;73.86035;92905.69;;;;
2020/12/05 03:40:01;;;;;;;15.1;8.450001;;;;;;;0.74;73.86035;92905.69;;;;
2020/12/05 03:41:03;;;;;;;15.1;8.450001;;;;;;;0.74;73.86035;92905.69;;;;
2020/12/05 03:42:03;;;;;;;15.1;8.450001;;;;;;;0.74;73.86035;92905.69;;;;
2020/12/05 03:43:04;;;;;;;15.1;8.450001;;;;;;;0.74;73.86035;92905.69;;;;
2020/12/05 03:44:05;;;;;;;15.1;8.450001;;;;;;;0.74;73.86035;92905.69;;;;
2020/12/05 03:45:05;;;;;;;15.1;8.450001;;;;;;;0.74;73.86035;92905.69;;;;
2020/12/05 03:46:06;;;;;;;15.1;8.450001;;;;;;;0.74;73.86035;92905.69;;;;
2020/12/05 03:47:07;;;;;;;20.95;12.55;;;;;;;0.76;75.15039;92964.69;;;;
2020/12/05 03:48:07;;;;;;;20.95;12.55;;;;;;;0.76;75.15039;92964.69;;;;
2020/12/05 03:49:08;;;;;;;20.95;12.55;;;;;;;0.76;75.15039;92964.69;;;;
2020/12/05 03:50:08;;;;;;;20.95;12.55;;;;;;;0.76;75.15039;92964.69;;;;
2020/12/05 03:51:09;;;;;;;20.95;12.55;;;;;;;0.76;75.15039;92964.69;;;;
2020/12/05 03:52:09;;;;;;;20.95;12.55;;;;;;;0.76;75.15039;92964.69;;;;
2020/12/05 03:53:10;;;;;;;20.95;12.55;;;;;;;0.76;75.15039;92964.69;;;;
2020/12/05 03:54:10;;;;;;;20.95;12.55;;;;;;;0.76;75.15039;92964.69;;;;
2020/12/05 03:55:11;;;;;;;20.95;12.55;;;;;;;0.76;75.15039;92964.69;;;;
2020/12/05 03:56:12;;;;;;;20.95;12.55;;;;;;;0.76;75.15039;92964.69;;;;
2020/12/05 03:57:14;;;;;;;23.65;14.4;;;;;;;0.7;76.0791;92981.94;;;;
2020/12/05 03:58:14;;;;;;;23.65;14.4;;;;;;;0.7;76.0791;92981.94;;;;
2020/12/05 03:59:15;;;;;;;23.65;14.4;;;;;;;0.7;76.0791;92981.94;;;;
2020/12/05 04:00:15;;;;;;;23.65;14.4;;;;;;;0.7;76.0791;92981.94;;;;
2020/12/05 04:01:16;;;;;;;23.65;14.4;;;;;;;0.7;76.0791;92981.94;;;;
2020/12/05 04:02:16;;;;;;;23.65;14.4;;;;;;;0.7;76.0791;92981.94;;;;
2020/12/05 04:03:17;;;;;;;23.65;14.4;;;;;;;0.7;76.0791;92981.94;;;;
2020/12/05 04:04:18;;;;;;;23.65;14.4;;;;;;;0.7;76.0791;92981.94;;;;
2020/12/05 04:05:18;;;;;;;23.65;14.4;;;;;;;0.7;76.0791;92981.94;;;;
2020/12/05 04:06:19;;;;;;;23.65;14.4;;;;;;;0.7;76.0791;92981.94;;;;
2020/12/05 04:07:19;;;;;;;23.65;14.4;;;;;;;0.7;76.0791;92981.94;;;;
2020/12/05 04:08:20;;;;;;;26;15.05;;;;;;;0.72;76.80566;93036.95;;;;
2020/12/05 04:09:20;;;;;;;26;15.05;;;;;;;0.72;76.80566;93036.95;;;;
2020/12/05 04:10:21;;;;;;;26;15.05;;;;;;;0.72;76.80566;93036.95;;;;
2020/12/05 04:11:21;;;;;;;26;15.05;;;;;;;0.72;76.80566;93036.95;;;;
2020/12/05 04:12:22;;;;;;;26;15.05;;;;;;;0.72;76.80566;93036.95;;;;
2020/12/05 04:13:22;;;;;;;26;15.05;;;;;;;0.72;76.80566;93036.95;;;;
2020/12/05 04:14:23;;;;;;;26;15.05;;;;;;;0.72;76.80566;93036.95;;;;
2020/12/05 04:15:24;;;;;;;26;15.05;;;;;;;0.72;76.80566;93036.95;;;;
2020/12/05 04:16:25;;;;;;;26;15.05;;;;;;;0.72;76.80566;93036.95;;;;
2020/12/05 04:17:25;;;;;;;26;15.05;;;;;;;0.72;76.80566;93036.95;;;;
2020/12/05 04:18:25;;;;;;;26;15.05;;;;;;;0.72;76.80566;93036.95;;;;
2020/12/05 04:19:26;;;;;;;26.55;15.8;;;;;;;0.83;77.48242;93091.52;;;;
2020/12/05 04:20:27;;;;;;;26.55;15.8;;;;;;;0.83;77.48242;93091.52;;;;
2020/12/05 04:21:27;;;;;;;26.55;15.8;;;;;;;0.83;77.48242;93091.52;;;;
2020/12/05 04:22:28;;;;;;;26.55;15.8;;;;;;;0.83;77.48242;93091.52;;;;
2020/12/05 04:23:28;;;;;;;26.55;15.8;;;;;;;0.83;77.48242;93091.52;;;;
2020/12/05 04:24:29;;;;;;;26.55;15.8;;;;;;;0.83;77.48242;93091.52;;;;
2020/12/05 04:25:29;;;;;;;26.55;15.8;;;;;;;0.83;77.48242;93091.52;;;;
2020/12/05 04:26:30;;;;;;;26.55;15.8;;;;;;;0.83;77.48242;93091.52;;;;
2020/12/05 04:27:30;;;;;;;26.55;15.8;;;;;;;0.83;77.48242;93091.52;;;;
2020/12/05 04:28:31;;;;;;;26.55;15.8;;;;;;;0.83;77.48242;93091.52;;;;
2020/12/05 04:29:31;;;;;;;25.5;15.1;;;;;;;1;78.56836;93100.84;;;;
2020/12/05 04:30:32;;;;;;;25.5;15.1;;;;;;;1;78.56836;93100.84;;;;
2020/12/05 04:31:32;;;;;;;25.5;15.1;;;;;;;1;78.56836;93100.84;;;;
2020/12/05 04:32:33;;;;;;;25.5;15.1;;;;;;;1;78.56836;93100.84;;;;
2020/12/05 04:33:33;;;;;;;25.5;15.1;;;;;;;1;78.56836;93100.84;;;;
2020/12/05 04:34:34;;;;;;;25.5;15.1;;;;;;;1;78.56836;93100.84;;;;
2020/12/05 04:35:34;;;;;;;25.5;15.1;;;;;;;1;78.56836;93100.84;;;;
2020/12/05 04:36:35;;;;;;;25.5;15.1;;;;;;;1;78.56836;93100.84;;;;
2020/12/05 04:37:36;;;;;;;25.5;15.1;;;;;;;1;78.56836;93100.84;;;;
2020/12/05 04:38:37;;;;;;;25.5;15.1;;;;;;;1;78.56836;93100.84;;;;
2020/12/05 04:39:37;;;;;;;25.5;15.1;;;;;;;1;78.56836;93100.84;;;;
2020/12/05 04:40:38;;;;;;;30.3;16.7;;;;;;;1.23;79.1123;93135.06;;;;
2020/12/05 04:41:38;;;;;;;30.3;16.7;;;;;;;1.23;79.1123;93135.06;;;;
2020/12/05 04:42:40;;;;;;;30.3;16.7;;;;;;;1.23;79.1123;93135.06;;;;
2020/12/05 04:43:43;;;;;;;30.3;16.7;;;;;;;1.23;79.1123;93135.06;;;;
2020/12/05 04:44:44;;;;;;;30.3;16.7;;;;;;;1.23;79.1123;93135.06;;;;
2020/12/05 04:45:46;;;;;;;30.3;16.7;;;;;;;1.23;79.1123;93135.06;;;;
2020/12/05 04:46:46;;;;;;;30.3;16.7;;;;;;;1.23;79.1123;93135.06;;;;
2020/12/05 04:47:49;;;;;;;30.3;16.7;;;;;;;1.23;79.1123;93135.06;;;;
2020/12/05 04:48:51;;;;;;;30.3;16.7;;;;;;;1.23;79.1123;93135.06;;;;
2020/12/05 04:49:53;;;;;;;30.3;16.7;;;;;;;1.23;79.1123;93135.06;;;;
2020/12/05 04:50:56;;;;;;;30.35;17.45;;;;;;;1.44;79.28613;93165.06;;;;
2020/12/05 04:52:01;;;;;;;30.35;17.45;;;;;;;1.44;79.28613;93165.06;;;;
2020/12/05 04:53:13;;;;;;;30.35;17.45;;;;;;;1.44;79.28613;93165.06;;;;
2020/12/05 04:54:17;;;;;;;30.35;17.45;;;;;;;1.44;79.28613;93165.06;;;;
2020/12/05 04:55:25;;;;;;;30.35;17.45;;;;;;;1.44;79.28613;93165.06;;;;
2020/12/05 04:56:30;;;;;;;30.35;17.45;;;;;;;1.44;79.28613;93165.06;;;;
2020/12/05 04:57:37;;;;;;;30.35;17.45;;;;;;;1.44;79.28613;93165.06;;;;
2020/12/05 04:58:39;;;;;;;30.35;17.45;;;;;;;1.44;79.28613;93165.06;;;;
2020/12/05 04:59:45;;;;;;;30.35;17.45;;;;;;;1.44;79.28613;93165.06;;;;
2020/12/05 05:00:47;;;;;;;30.35;17.45;;;;;;;1.44;79.28613;93165.06;;;;
2020/12/05 05:01:51;;;;;;;28.45;17.25;;;;;;;1.61;79.66504;93157.06;;;;
2020/12/05 05:02:55;;;;;;;28.45;17.25;;;;;;;1.61;79.66504;93157.06;;;;
2020/12/05 05:03:58;;;;;;;28.45;17.25;;;;;;;1.61;79.66504;93157.06;;;;
2020/12/05 05:05:00;;;;;;;28.45;17.25;;;;;;;1.61;79.66504;93157.06;;;;
2020/12/05 05:06:00;;;;;;;28.45;17.25;;;;;;;1.61;79.66504;93157.06;;;;
2020/12/05 05:07:01;;;;;;;28.45;17.25;;;;;;;1.61;79.66504;93157.06;;;;
2020/12/05 05:08:03;;;;;;;28.45;17.25;;;;;;;1.61;79.66504;93157.06;;;;
2020/12/05 05:09:03;;;;;;;28.45;17.25;;;;;;;1.61;79.66504;93157.06;;;;
2020/12/05 05:10:10;;;;;;;28.45;17.25;;;;;;;1.61;79.66504;93157.06;;;;
2020/12/05 05:11:16;;;;;;;28.45;17.25;;;;;;;1.61;79.66504;93157.06;;;;
2020/12/05 05:12:16;;;;;;;35.35;17.7;;;;;;;1.7;79.48145;93196.88;;;;
2020/12/05 05:13:26;;;;;;;35.35;17.7;;;;;;;1.7;79.48145;93196.88;;;;
2020/12/05 05:14:27;;;;;;;35.35;17.7;;;;;;;1.7;79.48145;93196.88;;;;
2020/12/05 05:15:31;;;;;;;35.35;17.7;;;;;;;1.7;79.48145;93196.88;;;;
2020/12/05 05:16:32;;;;;;;35.35;17.7;;;;;;;1.7;79.48145;93196.88;;;;
2020/12/05 05:17:33;;;;;;;35.35;17.7;;;;;;;1.7;79.48145;93196.88;;;;
2020/12/05 05:18:33;;;;;;;35.35;17.7;;;;;;;1.7;79.48145;93196.88;;;;
2020/12/05 05:19:34;;;;;;;35.35;17.7;;;;;;;1.7;79.48145;93196.88;;;;
2020/12/05 05:20:37;;;;;;;35.35;17.7;;;;;;;1.7;79.48145;93196.88;;;;
2020/12/05 05:21:41;;;;;;;35.35;17.7;;;;;;;1.7;79.48145;93196.88;;;;
2020/12/05 05:22:41;;;;;;;35.35;17.7;;;;;;;1.7;79.48145;93196.88;;;;
2020/12/05 05:23:42;;;;;;;30.75;17.9;;;;;;;1.74;79.72949;93241.11;;;;
2020/12/05 05:24:44;;;;;;;30.75;17.9;;;;;;;1.74;79.72949;93241.11;;;;
2020/12/05 05:25:59;;;;;;;30.75;17.9;;;;;;;1.74;79.72949;93241.11;;;;
2020/12/05 05:27:02;;;;;;;30.75;17.9;;;;;;;1.74;79.72949;93241.11;;;;
2020/12/05 05:28:05;;;;;;;30.75;17.9;;;;;;;1.74;79.72949;93241.11;;;;
2020/12/05 05:29:06;;;;;;;30.75;17.9;;;;;;;1.74;79.72949;93241.11;;;;
2020/12/05 05:30:22;;;;;;;30.75;17.9;;;;;;;1.74;79.72949;93241.11;;;;
2020/12/05 05:31:27;;;;;;;30.75;17.9;;;;;;;1.74;79.72949;93241.11;;;;
2020/12/05 05:32:43;;;;;;;30.75;17.9;;;;;;;1.74;79.72949;93241.11;;;;
2020/12/05 05:33:44;;;;;;;28.75;17.15;;;;;;;1.77;79.58008;93259.16;;;;
2020/12/05 05:34:46;;;;;;;28.75;17.15;;;;;;;1.77;79.58008;93259.16;;;;
2020/12/05 05:35:47;;;;;;;28.75;17.15;;;;;;;1.77;79.58008;93259.16;;;;
2020/12/05 05:36:47;;;;;;;28.75;17.15;;;;;;;1.77;79.58008;93259.16;;;;
2020/12/05 05:37:49;;;;;;;28.75;17.15;;;;;;;1.77;79.58008;93259.16;;;;
2020/12/05 05:38:49;;;;;;;28.75;17.15;;;;;;;1.77;79.58008;93259.16;;;;
2020/12/05 05:39:59;;;;;;;28.75;17.15;;;;;;;1.77;79.58008;93259.16;;;;
2020/12/05 05:41:00;;;;;;;28.75;17.15;;;;;;;1.77;79.58008;93259.16;;;;
2020/12/05 05:42:11;;;;;;;28.75;17.15;;;;;;;1.77;79.58008;93259.16;;;;
2020/12/05 05:43:11;;;;;;;28.75;17.15;;;;;;;1.77;79.58008;93259.16;;;;
2020/12/05 05:44:16;;;;;;;30.75;17.8;;;;;;;1.75;79.41699;93277.19;;;;
2020/12/05 05:45:18;;;;;;;30.75;17.8;;;;;;;1.75;79.41699;93277.19;;;;
2020/12/05 05:46:21;;;;;;;30.75;17.8;;;;;;;1.75;79.41699;93277.19;;;;
2020/12/05 05:47:24;;;;;;;30.75;17.8;;;;;;;1.75;79.41699;93277.19;;;;
2020/12/05 05:48:24;;;;;;;30.75;17.8;;;;;;;1.75;79.41699;93277.19;;;;
2020/12/05 05:49:25;;;;;;;30.75;17.8;;;;;;;1.75;79.41699;93277.19;;;;